KIDI

Indiana County/Jimmy Stewart Field/ Airport

Indiana, Pennsylvania, USA
METAR KIDI 181635Z AUTO 26007G12KT 4SM BR OVC008 03/03 A3006 RMK A01
Observed Flight Rules
Dec-18 @ 16:35 UTC (12 minutes ago) Instrument Flight Rules
Wind Visibility Clouds Conditions
260° at 7 knots
 Gusting to 12 knots
4 miles
  • Overcast at 800' AGL
  • Mist
Temperatures Readings
Current 3°C / 37°F
Dewpoint 3°C / 37°F
Humidity 100%
Altimeter 30.06" Hg
Pressure 1018 hPa
Elevation 429
METAR KIDI 181635Z AUTO 26007G12KT 4SM BR OVC008 03/03 A3006 RMK A01
Observed Flight Rules
Dec-18 @ 16:35 UTC
(12 minutes ago)
IFR
Wind Visibility
260° at 7 knots
 Gusting to 12 knots
4 miles
Clouds
  • Overcast at 800' AGL
Conditions
  • Mist
Temperature Dewpoint
3°C / 37°F 3°C / 37°F
Humidity Altimeter Pressure
100% 30.06" Hg 1018 hPa